createdAt,value
2023-03-11T00:01:27.706Z,42.18
2023-03-11T00:03:56.135Z,41.85
2023-03-11T00:06:24.526Z,41.77
2023-03-11T00:08:53.400Z,41.84
2023-03-11T00:11:21.884Z,41.77
2023-03-11T00:13:50.361Z,41.84
2023-03-11T00:16:18.701Z,41.99
2023-03-11T00:18:51.027Z,42.12
2023-03-11T00:21:19.740Z,42.03
2023-03-11T00:24:04.614Z,42.22
2023-03-11T00:26:33.750Z,42.12
2023-03-11T00:29:03.890Z,42.22
2023-03-11T00:31:33.070Z,42.20
2023-03-11T00:34:01.397Z,42.33
2023-03-11T00:36:34.380Z,42.45
2023-03-11T00:39:05.000Z,42.60
2023-03-11T00:41:35.428Z,42.72
2023-03-11T00:44:04.494Z,42.63
2023-03-11T00:46:32.995Z,42.67
2023-03-11T00:49:02.344Z,42.73
2023-03-11T00:51:33.767Z,42.73
2023-03-11T00:54:03.551Z,42.71
2023-03-11T00:56:33.035Z,43.05
2023-03-11T00:59:01.241Z,43.11
2023-03-11T01:03:59.769Z,43.21
2023-03-11T01:06:32.780Z,43.19
2023-03-11T01:09:07.062Z,43.49
2023-03-11T01:11:34.761Z,43.71
2023-03-11T01:14:03.071Z,43.51
2023-03-11T01:16:30.642Z,43.51
2023-03-11T01:18:58.153Z,43.71
2023-03-11T01:21:26.603Z,43.82
2023-03-11T01:23:54.021Z,44.05
2023-03-11T01:26:21.316Z,44.17
2023-03-11T01:28:49.300Z,44.14
2023-03-11T01:31:16.406Z,44.33
2023-03-11T01:33:44.437Z,44.75
2023-03-11T01:36:12.518Z,44.85
2023-03-11T01:38:40.462Z,45.18
2023-03-11T01:41:11.728Z,45.62
2023-03-11T01:43:47.636Z,45.52
2023-03-11T01:46:23.630Z,45.47
2023-03-11T01:48:59.197Z,45.60
2023-03-11T01:51:46.987Z,45.79
2023-03-11T01:54:25.175Z,45.75
2023-03-11T01:56:55.633Z,45.91
2023-03-11T01:59:28.823Z,45.76
2023-03-11T02:02:12.492Z,45.88
2023-03-11T02:04:41.629Z,45.73
2023-03-11T02:07:11.096Z,45.73
2023-03-11T02:09:39.164Z,45.83
2023-03-11T02:12:09.187Z,45.88
2023-03-11T02:14:39.314Z,45.84
2023-03-11T02:17:08.658Z,45.85
2023-03-11T02:20:18.092Z,46.11
2023-03-11T02:22:48.884Z,46.03
2023-03-11T02:25:39.802Z,46.24
2023-03-11T02:28:11.268Z,46.01
2023-03-11T02:30:41.501Z,46.03
2023-03-11T02:33:11.977Z,45.99
2023-03-11T02:35:40.938Z,46.20
2023-03-11T02:38:09.169Z,46.26
2023-03-11T02:41:02.173Z,46.36
2023-03-11T02:43:43.087Z,46.50
2023-03-11T02:46:12.320Z,46.46
2023-03-11T02:48:40.806Z,46.76
2023-03-11T02:51:08.312Z,46.98
2023-03-11T02:53:43.905Z,47.01
2023-03-11T02:56:11.447Z,47.11
2023-03-11T02:58:40.193Z,47.20
2023-03-11T03:01:08.960Z,47.35
2023-03-11T03:03:36.637Z,47.54
2023-03-11T03:06:05.492Z,47.76
2023-03-11T03:09:16.457Z,47.86
2023-03-11T03:11:43.792Z,47.89
2023-03-11T03:14:11.485Z,47.82
2023-03-11T03:16:39.069Z,48.27
2023-03-11T03:19:06.655Z,48.32
2023-03-11T03:21:33.940Z,48.35
2023-03-11T03:24:01.322Z,48.29
2023-03-11T03:26:28.780Z,48.30
2023-03-11T03:28:56.601Z,48.21
2023-03-11T03:31:23.847Z,48.05
2023-03-11T03:33:53.320Z,48.27
2023-03-11T03:36:20.611Z,48.27
2023-03-11T03:38:48.501Z,48.48
2023-03-11T03:41:16.165Z,48.41
2023-03-11T03:43:43.878Z,48.64
2023-03-11T03:46:10.863Z,48.78
2023-03-11T03:48:38.462Z,48.83
2023-03-11T03:51:09.608Z,48.99
2023-03-11T03:53:38.096Z,49.16
2023-03-11T03:56:08.035Z,49.25
2023-03-11T03:58:37.215Z,49.64
2023-03-11T04:01:05.275Z,49.62
2023-03-11T04:03:33.400Z,49.56
2023-03-11T04:06:11.323Z,49.69
2023-03-11T04:08:38.907Z,49.93
2023-03-11T04:11:06.966Z,50.30
2023-03-11T04:13:35.623Z,50.32
2023-03-11T04:16:05.270Z,50.27
2023-03-11T04:18:33.242Z,50.04
2023-03-11T04:21:03.941Z,49.93
2023-03-11T04:23:31.092Z,49.85
2023-03-11T04:25:58.197Z,49.86
2023-03-11T04:28:26.330Z,49.84
2023-03-11T04:30:53.720Z,49.82
2023-03-11T04:33:21.044Z,49.66
2023-03-11T04:35:48.238Z,49.73
2023-03-11T04:38:15.866Z,49.81
2023-03-11T04:40:42.839Z,49.85
2023-03-11T04:43:10.224Z,49.92
2023-03-11T04:45:40.843Z,49.89
2023-03-11T04:48:08.667Z,49.98
2023-03-11T04:50:37.351Z,50.01
2023-03-11T04:53:05.163Z,49.98
2023-03-11T04:55:32.171Z,49.94
2023-03-11T04:57:59.097Z,50.15
2023-03-11T05:00:27.143Z,50.06
2023-03-11T05:02:54.398Z,50.18
2023-03-11T05:05:23.002Z,50.24
2023-03-11T05:07:50.317Z,50.33
2023-03-11T05:10:17.989Z,50.13
2023-03-11T05:12:45.090Z,50.13
2023-03-11T05:15:11.677Z,50.20
2023-03-11T05:17:38.732Z,50.39
2023-03-11T05:20:06.610Z,50.47
2023-03-11T05:22:33.852Z,50.33
2023-03-11T05:25:01.454Z,50.25
2023-03-11T05:27:28.448Z,50.22
2023-03-11T05:29:55.210Z,50.11
2023-03-11T05:32:23.690Z,49.85
2023-03-11T05:34:51.047Z,49.62
2023-03-11T05:37:18.848Z,49.52
2023-03-11T05:40:17.724Z,49.48
2023-03-11T05:42:44.667Z,49.39
2023-03-11T05:45:15.136Z,49.33
2023-03-11T05:47:42.493Z,49.41
2023-03-11T05:50:12.817Z,49.31
2023-03-11T05:52:40.787Z,49.34
2023-03-11T05:55:09.656Z,49.27
2023-03-11T05:57:37.048Z,49.32
2023-03-11T06:00:06.057Z,49.30
2023-03-11T06:02:33.373Z,49.18
2023-03-11T06:05:00.330Z,49.15
2023-03-11T06:07:28.871Z,48.90
2023-03-11T06:09:56.161Z,48.67
2023-03-11T06:12:23.202Z,48.56
2023-03-11T06:14:53.595Z,48.44
2023-03-11T06:17:22.679Z,48.33
2023-03-11T06:19:49.591Z,48.27
2023-03-11T06:22:17.031Z,48.33
2023-03-11T06:24:43.899Z,48.30
2023-03-11T06:27:10.742Z,48.28
2023-03-11T06:29:39.415Z,48.18
2023-03-11T06:32:08.147Z,48.21
2023-03-11T06:34:36.194Z,48.25
2023-03-11T06:37:03.254Z,48.17
2023-03-11T06:39:30.008Z,48.17
2023-03-11T06:41:57.913Z,48.12
2023-03-11T06:44:25.748Z,48.11
2023-03-11T06:46:53.017Z,48.05
2023-03-11T06:49:21.084Z,47.95
2023-03-11T06:51:47.880Z,47.90
2023-03-11T06:54:15.025Z,47.77
2023-03-11T06:56:41.826Z,47.68
2023-03-11T06:59:10.039Z,47.39
2023-03-11T07:01:41.462Z,46.94
2023-03-11T07:04:10.725Z,46.22
2023-03-11T07:06:39.255Z,45.33
2023-03-11T07:09:08.031Z,43.80
2023-03-11T07:11:37.304Z,41.73
2023-03-11T07:14:06.814Z,39.83
2023-03-11T07:16:35.728Z,38.38
2023-03-11T07:19:03.936Z,37.14
2023-03-11T07:21:32.909Z,35.97
2023-03-11T07:24:03.144Z,34.83
2023-03-11T07:26:33.812Z,33.54
2023-03-11T07:29:02.194Z,32.69
2023-03-11T07:31:32.716Z,32.29
2023-03-11T07:34:05.705Z,30.49
2023-03-11T07:36:34.719Z,28.68
2023-03-11T07:39:05.782Z,27.95
2023-03-11T07:41:35.884Z,27.28
2023-03-11T07:44:06.821Z,26.71
2023-03-11T07:46:35.612Z,26.52
2023-03-11T07:49:04.960Z,26.45
2023-03-11T07:51:35.424Z,26.20
2023-03-11T07:54:05.495Z,25.63
2023-03-11T07:56:35.668Z,24.52
2023-03-11T07:59:05.598Z,23.15
2023-03-11T08:01:34.285Z,22.24
2023-03-11T08:04:05.966Z,21.44
2023-03-11T08:06:35.833Z,20.48
2023-03-11T08:09:07.684Z,19.77
2023-03-11T08:11:37.120Z,18.80
2023-03-11T08:14:06.461Z,18.07
2023-03-11T08:16:35.057Z,17.51
2023-03-11T08:19:03.683Z,17.18
2023-03-11T08:21:32.147Z,16.68
2023-03-11T08:24:04.056Z,16.15
2023-03-11T08:26:33.193Z,15.62
2023-03-11T08:29:01.250Z,15.17
2023-03-11T08:31:31.931Z,14.74
2023-03-11T08:34:03.379Z,14.32
2023-03-11T08:36:32.912Z,14.09
2023-03-11T08:39:01.474Z,13.72
2023-03-11T08:41:29.749Z,13.62
2023-03-11T08:43:57.928Z,13.21
2023-03-11T08:46:32.553Z,12.86
2023-03-11T08:49:02.258Z,12.76
2023-03-11T08:51:33.033Z,12.38
2023-03-11T08:54:01.957Z,12.20
2023-03-11T08:56:30.430Z,11.86
2023-03-11T08:58:58.498Z,11.86
2023-03-11T09:01:26.822Z,11.93
2023-03-11T09:03:55.435Z,12.18
2023-03-11T09:06:23.641Z,12.39
2023-03-11T09:08:52.251Z,12.41
2023-03-11T09:11:20.418Z,12.26
2023-03-11T09:13:49.599Z,12.37
2023-03-11T09:16:21.916Z,12.30
2023-03-11T09:18:50.656Z,12.34
2023-03-11T09:21:19.231Z,12.06
2023-03-11T09:23:48.621Z,12.34
2023-03-11T09:26:16.845Z,12.24
2023-03-11T09:28:44.966Z,12.32
2023-03-11T09:31:14.317Z,12.62
2023-03-11T09:33:43.542Z,12.97
2023-03-11T09:36:15.083Z,13.12
2023-03-11T09:38:44.749Z,13.43
2023-03-11T09:41:47.906Z,13.71
2023-03-11T09:44:45.041Z,13.48
2023-03-11T09:47:45.669Z,13.44
2023-03-11T09:50:29.645Z,13.08
2023-03-11T09:53:19.611Z,12.77
2023-03-11T09:55:54.325Z,12.75
2023-03-11T09:58:25.379Z,12.55
2023-03-11T10:00:53.593Z,12.26
2023-03-11T10:03:29.464Z,12.14
2023-03-11T10:06:05.278Z,12.02
2023-03-11T10:08:42.061Z,11.67
2023-03-11T10:11:27.675Z,11.53
2023-03-11T10:14:23.291Z,11.24
2023-03-11T10:17:22.260Z,11.37
2023-03-11T10:20:02.346Z,11.52
2023-03-11T10:22:53.559Z,11.48
2023-03-11T10:25:26.942Z,11.49
2023-03-11T10:28:13.868Z,11.42
2023-03-11T10:30:48.407Z,11.18
2023-03-11T10:33:24.685Z,11.32
2023-03-11T10:35:58.871Z,11.25
2023-03-11T10:38:41.925Z,11.30
2023-03-11T10:41:31.655Z,11.00
2023-03-11T10:44:06.270Z,11.05
2023-03-11T10:46:34.872Z,10.96
2023-03-11T10:49:02.948Z,10.86
2023-03-11T10:51:38.172Z,10.74
2023-03-11T10:54:06.324Z,10.78
2023-03-11T10:56:35.988Z,10.63
2023-03-11T10:59:06.966Z,10.46
2023-03-11T11:01:35.095Z,10.60
2023-03-11T11:04:03.376Z,10.51
2023-03-11T11:06:36.343Z,10.69
2023-03-11T11:09:14.609Z,10.75
2023-03-11T11:12:00.000Z,10.73
2023-03-11T11:14:49.307Z,10.78
2023-03-11T11:17:28.547Z,10.61
2023-03-11T11:19:58.980Z,10.35
2023-03-11T11:22:28.698Z,10.48
2023-03-11T11:24:57.116Z,10.57
2023-03-11T11:27:29.881Z,10.61
2023-03-11T11:30:25.351Z,10.66
2023-03-11T11:32:53.894Z,10.92
2023-03-11T11:35:24.476Z,10.94
2023-03-11T11:37:59.504Z,11.08
2023-03-11T11:40:31.749Z,11.10
2023-03-11T11:43:06.072Z,11.10
2023-03-11T11:45:59.835Z,11.22
2023-03-11T11:48:38.600Z,11.33
2023-03-11T11:51:18.426Z,11.31
2023-03-11T11:54:16.556Z,11.25
2023-03-11T11:56:45.881Z,11.27
2023-03-11T11:59:23.613Z,11.31
2023-03-11T12:02:13.773Z,11.20
2023-03-11T12:05:13.640Z,10.92
2023-03-11T12:08:29.509Z,10.99
2023-03-11T12:11:14.471Z,11.38
2023-03-11T12:13:53.409Z,11.94
2023-03-11T12:16:30.713Z,12.63
2023-03-11T12:19:24.818Z,13.18
2023-03-11T12:22:21.068Z,13.71
2023-03-11T12:25:24.162Z,14.11
2023-03-11T12:27:59.944Z,14.98
2023-03-11T12:30:36.072Z,15.57
2023-03-11T12:33:09.349Z,15.75
2023-03-11T12:35:40.216Z,15.81
2023-03-11T12:38:28.889Z,15.41
2023-03-11T12:41:04.222Z,15.62
2023-03-11T12:43:32.429Z,15.92
2023-03-11T12:46:02.591Z,16.20
2023-03-11T12:49:12.107Z,16.24
2023-03-11T12:51:41.456Z,16.51
2023-03-11T12:54:29.769Z,16.55
2023-03-11T12:57:21.976Z,16.65
2023-03-11T13:00:14.212Z,16.84
2023-03-11T13:03:01.132Z,16.94
2023-03-11T13:05:48.097Z,17.41
2023-03-11T13:08:21.101Z,17.57
2023-03-11T13:10:52.542Z,17.68
2023-03-11T13:13:40.447Z,17.51
2023-03-11T13:16:14.805Z,17.61
2023-03-11T13:18:48.009Z,17.77
2023-03-11T13:21:28.636Z,17.70
2023-03-11T13:24:24.659Z,17.70
2023-03-11T13:27:02.237Z,17.82
2023-03-11T13:29:50.569Z,17.86
2023-03-11T13:32:57.742Z,18.03
2023-03-11T13:35:45.799Z,18.45
2023-03-11T13:38:39.782Z,18.75
2023-03-11T13:41:24.858Z,19.24
2023-03-11T13:43:57.942Z,19.63
2023-03-11T13:46:36.936Z,19.76
2023-03-11T13:49:37.392Z,19.76
2023-03-11T13:52:12.896Z,19.75
2023-03-11T13:54:43.859Z,19.82
2023-03-11T13:57:36.727Z,19.82
2023-03-11T14:00:20.263Z,19.86
2023-03-11T14:02:52.957Z,20.02
2023-03-11T14:05:27.243Z,20.00
2023-03-11T14:07:55.561Z,20.10
2023-03-11T14:10:30.172Z,20.21
2023-03-11T14:13:18.936Z,20.32
2023-03-11T14:16:08.381Z,20.35
2023-03-11T14:18:39.532Z,20.30
2023-03-11T14:21:15.089Z,20.30
2023-03-11T14:23:48.802Z,20.51
2023-03-11T14:26:35.211Z,20.69
2023-03-11T14:29:10.534Z,20.95
2023-03-11T14:31:41.703Z,21.24
2023-03-11T14:34:19.423Z,21.59
2023-03-11T14:36:52.514Z,21.84
2023-03-11T14:39:43.603Z,22.15
2023-03-11T14:42:21.960Z,22.22
2023-03-11T14:44:57.837Z,22.02
2023-03-11T14:47:32.403Z,22.10
2023-03-11T14:50:02.075Z,22.21
2023-03-11T14:52:58.730Z,22.31
2023-03-11T14:55:32.357Z,22.26
2023-03-11T14:58:10.421Z,22.32
2023-03-11T15:00:42.888Z,22.52
2023-03-11T15:03:27.296Z,22.77
2023-03-11T15:05:58.571Z,22.98
2023-03-11T15:08:31.084Z,22.97
2023-03-11T15:11:18.410Z,23.26
2023-03-11T15:13:48.904Z,23.53
2023-03-11T15:16:29.376Z,23.57
2023-03-11T15:19:21.170Z,23.69
2023-03-11T15:21:51.375Z,23.91
2023-03-11T15:24:22.732Z,24.17
2023-03-11T15:26:58.168Z,24.17
2023-03-11T15:29:27.756Z,24.39
2023-03-11T15:31:56.709Z,24.41
2023-03-11T15:34:33.874Z,24.28
2023-03-11T15:37:19.566Z,24.20
2023-03-11T15:39:50.243Z,24.05
2023-03-11T15:42:25.394Z,24.21
2023-03-11T15:45:05.089Z,24.46
2023-03-11T15:47:33.351Z,24.63
2023-03-11T15:50:23.487Z,25.00
2023-03-11T15:52:55.117Z,24.90
2023-03-11T15:55:25.542Z,24.54
2023-03-11T15:58:02.327Z,24.41
2023-03-11T16:00:30.710Z,24.26
2023-03-11T16:02:59.398Z,24.44
2023-03-11T16:05:28.183Z,24.76
2023-03-11T16:07:56.669Z,25.02
2023-03-11T16:10:24.830Z,25.24
2023-03-11T16:12:52.950Z,25.47
2023-03-11T16:15:28.147Z,25.56
2023-03-11T16:18:01.884Z,25.45
2023-03-11T16:20:37.010Z,25.60
2023-03-11T16:23:07.768Z,26.10
2023-03-11T16:25:39.963Z,26.31
2023-03-11T16:28:11.547Z,26.52
2023-03-11T16:30:40.310Z,26.44
2023-03-11T16:33:08.722Z,26.50
2023-03-11T16:35:37.088Z,26.50
2023-03-11T16:38:07.115Z,26.59
2023-03-11T16:40:35.885Z,26.64
2023-03-11T16:43:06.520Z,26.71
2023-03-11T16:45:34.803Z,26.77
2023-03-11T16:48:04.292Z,26.82
2023-03-11T16:50:34.231Z,26.80
2023-03-11T16:53:03.296Z,27.06
2023-03-11T16:55:31.386Z,27.12
2023-03-11T16:57:59.468Z,27.08
2023-03-11T17:00:27.982Z,27.14
2023-03-11T17:02:56.408Z,27.36
2023-03-11T17:05:27.103Z,27.54
2023-03-11T17:07:57.084Z,27.70
2023-03-11T17:10:26.283Z,28.01
2023-03-11T17:12:54.932Z,28.32
2023-03-11T17:15:23.254Z,28.62
2023-03-11T17:17:51.463Z,29.04
2023-03-11T17:20:21.587Z,29.45
2023-03-11T17:22:50.075Z,29.95
2023-03-11T17:25:18.587Z,30.50
2023-03-11T17:27:46.800Z,30.73
2023-03-11T17:30:27.182Z,31.15
2023-03-11T17:33:02.519Z,31.52
2023-03-11T17:35:30.722Z,31.77
2023-03-11T17:37:58.963Z,32.04
2023-03-11T17:40:27.580Z,32.27
2023-03-11T17:42:56.624Z,32.55
2023-03-11T17:45:24.949Z,32.83
2023-03-11T17:47:53.324Z,32.95
2023-03-11T17:50:21.487Z,33.25
2023-03-11T17:52:49.578Z,33.68
2023-03-11T17:55:18.376Z,33.60
2023-03-11T17:57:46.440Z,33.82
2023-03-11T18:00:15.225Z,34.08
2023-03-11T18:02:44.090Z,34.17
2023-03-11T18:05:12.298Z,34.46
2023-03-11T18:07:40.437Z,34.33
2023-03-11T18:10:11.519Z,34.67
2023-03-11T18:12:39.746Z,34.79
2023-03-11T18:15:09.043Z,34.86
2023-03-11T18:17:37.234Z,35.03
2023-03-11T18:20:05.742Z,35.06
2023-03-11T18:22:35.517Z,35.02
2023-03-11T18:25:04.854Z,35.27
2023-03-11T18:27:33.058Z,35.32
2023-03-11T18:30:01.253Z,35.21
2023-03-11T18:32:29.466Z,35.16
2023-03-11T18:34:58.447Z,35.21
2023-03-11T18:37:27.063Z,35.01
2023-03-11T18:39:55.249Z,35.01
2023-03-11T18:42:23.294Z,35.28
2023-03-11T18:44:51.409Z,35.46
2023-03-11T18:47:20.567Z,35.55
2023-03-11T18:49:48.757Z,35.65
2023-03-11T18:52:16.979Z,35.88
2023-03-11T18:54:45.588Z,36.00
2023-03-11T18:57:13.825Z,36.16
2023-03-11T18:59:41.924Z,36.18
2023-03-11T19:02:15.585Z,36.39
2023-03-11T19:04:44.557Z,36.62
2023-03-11T19:07:12.943Z,36.79
2023-03-11T19:09:41.393Z,36.95
2023-03-11T19:12:09.601Z,37.22
2023-03-11T19:14:37.665Z,37.48
2023-03-11T19:17:05.998Z,37.62
2023-03-11T19:19:34.173Z,37.64
2023-03-11T19:22:02.247Z,37.69
2023-03-11T19:24:30.934Z,37.86
2023-03-11T19:26:59.313Z,38.00
2023-03-11T19:29:28.066Z,38.18
2023-03-11T19:31:56.794Z,38.42
2023-03-11T19:34:24.894Z,38.52
2023-03-11T19:36:53.404Z,38.62
2023-03-11T19:39:21.599Z,38.80
2023-03-11T19:41:49.885Z,38.96
2023-03-11T19:44:18.895Z,39.18
2023-03-11T19:46:47.293Z,39.28
2023-03-11T19:49:15.643Z,39.50
2023-03-11T19:51:50.197Z,39.69
2023-03-11T19:54:20.156Z,39.74
2023-03-11T19:56:48.963Z,39.83
2023-03-11T19:59:17.302Z,39.95
2023-03-11T20:01:46.525Z,40.07
2023-03-11T20:04:14.633Z,40.13
2023-03-11T20:06:42.998Z,40.18
2023-03-11T20:09:12.016Z,40.29
2023-03-11T20:11:40.872Z,40.35
2023-03-11T20:14:10.883Z,40.56
2023-03-11T20:16:40.250Z,40.62
2023-03-11T20:19:08.389Z,40.79
2023-03-11T20:21:36.641Z,40.85
2023-03-11T20:24:05.712Z,40.91
2023-03-11T20:26:33.950Z,41.04
2023-03-11T20:29:02.279Z,41.19
2023-03-11T20:31:33.204Z,41.34
2023-03-11T20:34:01.419Z,41.47
2023-03-11T20:36:32.453Z,41.45
2023-03-11T20:39:01.663Z,41.57
2023-03-11T20:41:35.563Z,41.68
2023-03-11T20:44:05.892Z,41.67
2023-03-11T20:46:35.165Z,41.87
2023-03-11T20:49:04.055Z,41.98
2023-03-11T20:51:32.241Z,42.10
2023-03-11T20:54:00.576Z,42.11
2023-03-11T20:56:29.207Z,42.19
2023-03-11T20:58:57.934Z,42.16
2023-03-11T21:01:31.146Z,42.27
2023-03-11T21:04:02.428Z,42.34
2023-03-11T21:06:37.460Z,42.41
2023-03-11T21:09:10.691Z,42.39
2023-03-11T21:11:39.677Z,42.52
2023-03-11T21:14:08.947Z,42.54
2023-03-11T21:16:38.232Z,42.59
2023-03-11T21:19:06.817Z,42.53
2023-03-11T21:21:36.500Z,42.62
2023-03-11T21:24:05.428Z,42.71
2023-03-11T21:26:34.364Z,42.59
2023-03-11T21:29:03.066Z,42.63
2023-03-11T21:31:31.600Z,42.70
2023-03-11T21:34:00.739Z,42.66
2023-03-11T21:36:30.149Z,42.71
2023-03-11T21:38:58.447Z,42.74
2023-03-11T21:41:27.728Z,42.77
2023-03-11T21:43:57.734Z,42.86
2023-03-11T21:46:32.035Z,42.81
2023-03-11T21:49:01.408Z,42.88
2023-03-11T21:51:30.264Z,42.88
2023-03-11T21:53:59.104Z,42.84
2023-03-11T21:56:27.557Z,42.84
2023-03-11T21:58:55.860Z,42.81
2023-03-11T22:01:24.440Z,42.69
2023-03-11T22:03:53.191Z,42.72
2023-03-11T22:06:21.913Z,42.74
2023-03-11T22:08:50.331Z,42.73
2023-03-11T22:11:19.535Z,42.72
2023-03-11T22:13:51.292Z,42.76
2023-03-11T22:16:21.782Z,42.78
2023-03-11T22:18:50.874Z,42.86
2023-03-11T22:21:19.786Z,42.93
2023-03-11T22:23:48.104Z,42.94
2023-03-11T22:26:16.351Z,43.08
2023-03-11T22:28:44.479Z,43.15
2023-03-11T22:31:15.215Z,43.23
2023-03-11T22:33:44.196Z,43.35
2023-03-11T22:36:12.354Z,43.35
2023-03-11T22:38:42.077Z,43.43
2023-03-11T22:41:11.708Z,43.59
2023-03-11T22:43:40.010Z,43.63
2023-03-11T22:46:08.399Z,43.66
2023-03-11T22:48:37.789Z,43.69
2023-03-11T22:51:06.264Z,43.75
2023-03-11T22:53:34.449Z,43.72
2023-03-11T22:56:11.351Z,43.73
2023-03-11T22:58:39.657Z,43.69
2023-03-11T23:01:09.603Z,43.60
2023-03-11T23:03:38.338Z,43.46
2023-03-11T23:06:09.509Z,43.35
2023-03-11T23:08:38.035Z,43.32
2023-03-11T23:11:10.728Z,43.24
2023-03-11T23:13:40.689Z,43.13
2023-03-11T23:16:18.151Z,43.07
2023-03-11T23:18:47.698Z,43.10
2023-03-11T23:21:25.778Z,43.15
2023-03-11T23:23:55.076Z,43.11
2023-03-11T23:26:24.301Z,43.15
2023-03-11T23:28:53.585Z,43.23
2023-03-11T23:31:25.149Z,43.25
2023-03-11T23:33:54.284Z,43.26
2023-03-11T23:36:24.695Z,43.26
2023-03-11T23:38:53.656Z,43.29
2023-03-11T23:41:22.328Z,43.36
2023-03-11T23:43:51.177Z,43.45
2023-03-11T23:46:19.818Z,43.54
2023-03-11T23:48:48.182Z,43.59
2023-03-11T23:51:16.576Z,43.62
2023-03-11T23:53:45.095Z,43.70
2023-03-11T23:56:15.993Z,43.78
2023-03-11T23:58:44.322Z,43.86
